Time;durP1;ratioP1;P1;durP2;ratioP2;P2;SDS_P1;SDS_P2;PMS_P1;PMS_P2;Temp;Humidity;BMP_temperature;BMP_pressure;BME280_temperature;BME280_humidity;BME280_pressure;Samples;Min_cycle;Max_cycle;Signal;HPM_P1;HPM_P2
2022/12/08 00:01:08;;;;;;;2.08;1.33;;;1.90;99.90;;;;;;5079114;28;20060;-69
2022/12/08 00:03:34;;;;;;;3.42;1.30;;;1.90;99.90;;;;;;5016885;28;20525;-71
2022/12/08 00:11:31;;;;;;;2.00;1.25;;;2.00;99.90;;;;;;5015989;28;20058;-72
2022/12/08 00:13:57;;;;;;;3.67;1.35;;;2.00;99.90;;;;;;5019292;28;20052;-71
2022/12/08 00:16:22;;;;;;;1.90;1.10;;;3.00;99.90;;;;;;5036576;28;20045;-72
2022/12/08 00:18:48;;;;;;;3.50;1.20;;;2.00;99.90;;;;;;5036260;28;20095;-71
2022/12/08 00:21:14;;;;;;;2.95;1.30;;;2.00;99.90;;;;;;5034530;28;20105;-72
2022/12/08 00:23:41;;;;;;;3.17;1.55;;;2.10;99.90;;;;;;5040245;28;20049;-71
2022/12/08 00:26:07;;;;;;;7.13;2.65;;;2.10;99.90;;;;;;5076529;28;20135;-71
2022/12/08 00:28:33;;;;;;;2.50;1.15;;;2.20;99.90;;;;;;5049996;28;20074;-72
2022/12/08 00:31:05;;;;;;;4.00;1.48;;;2.70;99.90;;;;;;5079465;28;20050;-72
2022/12/08 00:33:31;;;;;;;2.53;1.10;;;2.20;99.90;;;;;;5033510;28;20038;-71
2022/12/08 00:35:57;;;;;;;2.47;1.13;;;2.40;99.90;;;;;;5035393;28;20044;-71
2022/12/08 00:38:22;;;;;;;2.40;0.98;;;2.10;99.90;;;;;;5033916;28;20053;-71
2022/12/08 00:40:48;;;;;;;3.65;1.40;;;2.10;99.90;;;;;;5048744;28;20065;-71
2022/12/08 00:43:14;;;;;;;3.47;1.30;;;2.10;99.90;;;;;;5048454;27;20085;-70
2022/12/08 00:45:40;;;;;;;4.55;1.35;;;2.00;99.90;;;;;;5073159;28;20052;-71
2022/12/08 00:48:06;;;;;;;5.68;1.52;;;1.90;99.90;;;;;;5061305;28;20061;-70
2022/12/08 00:50:32;;;;;;;4.55;1.20;;;1.90;99.90;;;;;;5035588;28;20050;-70
2022/12/08 00:52:57;;;;;;;4.45;1.58;;;1.80;99.90;;;;;;5112206;28;20042;-70
2022/12/08 00:55:23;;;;;;;1.60;0.80;;;1.80;99.90;;;;;;5118963;28;20043;-72
2022/12/08 00:57:49;;;;;;;4.10;1.10;;;1.90;99.90;;;;;;5118326;28;20103;-71
2022/12/08 01:00:15;;;;;;;4.00;1.00;;;1.80;99.90;;;;;;5083661;28;20053;-71
2022/12/08 01:02:40;;;;;;;2.03;0.80;;;1.80;99.90;;;;;;5036644;28;20046;-71
2022/12/08 01:05:06;;;;;;;2.10;0.90;;;1.80;99.90;;;;;;5033865;28;20102;-71
2022/12/08 01:07:32;;;;;;;2.75;0.88;;;1.80;99.90;;;;;;5036051;28;20382;-72
2022/12/08 01:09:58;;;;;;;2.13;0.98;;;1.80;99.90;;;;;;5033587;28;20113;-70
2022/12/08 01:12:24;;;;;;;1.55;0.80;;;1.80;99.90;;;;;;5033832;28;20045;-70
2022/12/08 01:14:49;;;;;;;4.28;1.00;;;1.70;99.90;;;;;;5083945;28;20100;-70
2022/12/08 01:17:15;;;;;;;1.88;0.90;;;1.70;99.90;;;;;;5059593;28;20035;-71
2022/12/08 01:19:41;;;;;;;4.10;1.33;;;1.70;99.90;;;;;;5120196;28;20160;-70
2022/12/08 01:22:06;;;;;;;3.92;1.20;;;1.70;99.90;;;;;;5058575;28;20053;-72
2022/12/08 01:24:32;;;;;;;2.63;0.90;;;1.70;99.90;;;;;;5014658;28;20076;-70
2022/12/08 01:26:58;;;;;;;2.58;1.00;;;1.80;99.90;;;;;;5013363;28;20052;-70
2022/12/08 01:29:25;;;;;;;2.70;1.48;;;1.70;99.90;;;;;;5066945;28;20103;-71
2022/12/08 01:31:50;;;;;;;2.30;0.93;;;1.80;99.90;;;;;;5009354;28;20048;-70
2022/12/08 01:34:16;;;;;;;2.72;1.20;;;2.90;99.90;;;;;;5033284;28;20045;-71
2022/12/08 01:36:43;;;;;;;3.70;1.50;;;1.80;99.90;;;;;;5084395;28;20603;-70
2022/12/08 01:39:14;;;;;;;2.78;1.35;;;1.80;99.90;;;;;;5116835;28;20481;-70
2022/12/08 01:41:42;;;;;;;2.67;1.48;;;1.80;99.90;;;;;;5119659;28;20071;-70
2022/12/08 01:44:09;;;;;;;3.67;1.98;;;1.80;99.90;;;;;;5106685;27;20079;-70
2022/12/08 01:46:37;;;;;;;3.03;1.50;;;1.80;99.90;;;;;;5035099;28;20053;-70
2022/12/08 01:49:33;;;;;;;3.85;1.67;;;1.90;99.90;;;;;;5035153;28;20032;-69
2022/12/08 01:52:04;;;;;;;3.88;1.52;;;1.80;99.90;;;;;;5032500;28;20061;-69
2022/12/08 01:54:37;;;;;;;3.17;1.75;;;1.80;99.90;;;;;;5034223;28;20052;-69
2022/12/08 01:57:14;;;;;;;2.85;1.70;;;1.70;99.90;;;;;;5033946;28;20052;-69
2022/12/08 01:59:46;;;;;;;3.05;1.40;;;1.70;99.90;;;;;;5072066;28;20058;-70
2022/12/08 02:02:12;;;;;;;2.50;1.60;;;1.60;99.90;;;;;;5062606;28;20092;-69
2022/12/08 02:04:38;;;;;;;3.10;1.65;;;1.60;99.90;;;;;;5116667;28;20487;-69
2022/12/08 02:07:05;;;;;;;3.85;1.80;;;1.60;99.90;;;;;;5058524;28;20042;-70
2022/12/08 02:09:31;;;;;;;3.38;1.92;;;1.60;99.90;;;;;;5013587;28;20046;-69
2022/12/08 02:11:58;;;;;;;3.17;1.60;;;1.70;99.90;;;;;;5015897;28;20583;-69
2022/12/08 02:14:24;;;;;;;3.33;1.40;;;1.70;99.90;;;;;;5084718;28;20069;-68
2022/12/08 02:17:15;;;;;;;2.38;1.40;;;1.80;99.90;;;;;;5081110;28;20060;-68
2022/12/08 02:20:25;;;;;;;2.50;1.48;;;1.80;99.90;;;;;;5035599;28;20050;-68
2022/12/08 02:23:14;;;;;;;3.08;1.40;;;1.80;99.90;;;;;;5004928;28;20058;-68
2022/12/08 02:26:01;;;;;;;4.15;1.70;;;1.90;99.90;;;;;;5013087;28;20135;-69
2022/12/08 02:28:57;;;;;;;2.65;1.30;;;1.90;99.90;;;;;;5014248;28;20175;-69
2022/12/08 02:31:41;;;;;;;3.20;1.48;;;1.90;99.90;;;;;;4992902;28;20062;-70
2022/12/08 02:34:27;;;;;;;3.22;1.75;;;1.90;99.90;;;;;;4994414;28;20067;-70
2022/12/08 02:36:55;;;;;;;4.65;1.55;;;1.90;99.90;;;;;;5032510;28;20126;-69
2022/12/08 02:39:33;;;;;;;4.35;1.88;;;1.90;99.90;;;;;;5091388;28;20050;-68
2022/12/08 02:42:06;;;;;;;3.60;1.67;;;1.90;99.90;;;;;;5042043;28;20150;-68
2022/12/08 02:44:40;;;;;;;2.72;1.50;;;2.00;99.90;;;;;;5051165;28;20180;-69
2022/12/08 02:47:17;;;;;;;3.95;1.75;;;2.40;99.90;;;;;;5115412;28;20087;-69
2022/12/08 02:49:42;;;;;;;2.83;1.63;;;2.00;99.90;;;;;;5118271;28;20054;-67
2022/12/08 02:52:11;;;;;;;5.35;1.85;;;2.00;99.90;;;;;;5119492;28;20047;-68
2022/12/08 02:54:40;;;;;;;3.20;1.67;;;1.90;99.90;;;;;;5052237;28;20056;-69
2022/12/08 02:57:25;;;;;;;3.40;1.80;;;1.90;99.90;;;;;;5037105;28;20100;-68
2022/12/08 02:59:57;;;;;;;3.72;1.90;;;1.90;99.90;;;;;;5036031;28;20080;-68
2022/12/08 03:02:40;;;;;;;4.07;1.75;;;1.90;99.90;;;;;;5037076;28;20056;-68
2022/12/08 03:05:20;;;;;;;3.90;1.90;;;2.00;99.90;;;;;;5017864;28;20086;-68
2022/12/08 03:07:53;;;;;;;4.05;2.15;;;2.00;99.90;;;;;;5034337;28;20099;-69
2022/12/08 03:10:30;;;;;;;4.32;2.10;;;1.90;99.90;;;;;;5026990;28;20109;-68
2022/12/08 03:13:19;;;;;;;3.65;2.42;;;2.00;99.90;;;;;;5011983;28;20126;-68
2022/12/08 03:15:48;;;;;;;3.63;2.08;;;2.00;99.90;;;;;;5033094;28;20041;-68
2022/12/08 03:18:17;;;;;;;3.35;1.95;;;2.10;99.90;;;;;;5062043;28;20113;-68
2022/12/08 03:20:45;;;;;;;3.58;2.20;;;2.10;99.90;;;;;;5059353;28;20047;-68
2022/12/08 03:23:13;;;;;;;4.32;2.75;;;2.10;99.90;;;;;;5119715;28;20099;-68
2022/12/08 03:25:47;;;;;;;3.22;2.28;;;2.20;99.90;;;;;;5062430;27;20060;-68
2022/12/08 03:28:13;;;;;;;3.10;2.10;;;2.20;99.90;;;;;;5038405;28;20045;-68
2022/12/08 03:30:42;;;;;;;3.15;2.15;;;2.20;99.90;;;;;;5034102;28;20071;-68
2022/12/08 03:33:39;;;;;;;5.00;2.33;;;2.20;99.90;;;;;;5036243;28;20042;-68
2022/12/08 03:36:07;;;;;;;3.53;2.50;;;2.20;99.90;;;;;;5076299;28;20064;-68
2022/12/08 03:38:38;;;;;;;3.45;2.00;;;2.30;99.90;;;;;;5044466;28;20449;-68
2022/12/08 03:41:18;;;;;;;4.38;2.58;;;2.30;99.90;;;;;;5018317;28;20069;-68
2022/12/08 03:43:57;;;;;;;5.07;2.88;;;2.30;99.90;;;;;;4994918;28;20084;-68
2022/12/08 03:46:25;;;;;;;3.25;2.05;;;2.30;99.90;;;;;;4997927;28;20084;-68
2022/12/08 03:48:51;;;;;;;3.28;1.73;;;2.30;99.90;;;;;;4996000;28;20049;-68
2022/12/08 03:51:18;;;;;;;3.80;2.00;;;2.30;99.90;;;;;;5075589;28;20036;-68
2022/12/08 03:53:44;;;;;;;3.10;2.13;;;2.60;99.90;;;;;;5027974;28;20043;-68
2022/12/08 03:56:24;;;;;;;4.80;2.20;;;2.40;99.90;;;;;;4996014;28;20051;-68
2022/12/08 03:58:50;;;;;;;3.80;2.20;;;2.60;99.90;;;;;;5021370;28;20515;-68
2022/12/08 04:01:16;;;;;;;3.78;2.35;;;2.40;99.90;;;;;;5036029;28;20092;-68
2022/12/08 04:03:42;;;;;;;3.95;2.65;;;2.40;99.90;;;;;;5036856;28;20041;-68
2022/12/08 04:06:08;;;;;;;3.13;2.25;;;2.40;99.90;;;;;;5042219;28;20076;-68
2022/12/08 04:08:34;;;;;;;3.03;2.40;;;2.50;99.90;;;;;;5119253;27;20118;-68
2022/12/08 04:10:59;;;;;;;3.15;2.20;;;2.50;99.90;;;;;;5119961;28;20047;-68
2022/12/08 04:13:25;;;;;;;4.70;2.45;;;2.60;99.90;;;;;;5118771;28;20112;-68
2022/12/08 04:15:51;;;;;;;3.30;2.10;;;2.50;99.90;;;;;;4998727;28;20047;-68
2022/12/08 04:18:16;;;;;;;2.97;1.70;;;2.50;99.90;;;;;;4994632;28;20565;-69
2022/12/08 04:20:44;;;;;;;2.45;1.60;;;2.50;99.90;;;;;;4997322;28;20043;-69
2022/12/08 04:23:11;;;;;;;4.30;2.10;;;2.50;99.90;;;;;;4999311;28;20516;-68
2022/12/08 04:25:37;;;;;;;2.90;1.83;;;2.50;99.90;;;;;;5034216;28;20053;-69
2022/12/08 04:28:03;;;;;;;4.07;2.22;;;2.50;99.90;;;;;;5035961;28;20046;-68
2022/12/08 04:30:30;;;;;;;3.05;1.90;;;2.50;99.90;;;;;;5033624;28;20077;-68
2022/12/08 04:32:55;;;;;;;4.40;2.17;;;2.50;99.90;;;;;;5037079;28;20045;-69
2022/12/08 04:35:21;;;;;;;3.10;2.15;;;2.50;99.90;;;;;;5063160;28;20036;-68
2022/12/08 04:37:47;;;;;;;5.40;2.38;;;2.50;99.90;;;;;;5029097;28;20045;-68
2022/12/08 04:40:13;;;;;;;5.20;2.47;;;2.70;99.90;;;;;;5035403;28;20050;-68
2022/12/08 04:42:39;;;;;;;2.85;2.30;;;2.40;99.90;;;;;;5054414;28;20066;-68
2022/12/08 04:45:05;;;;;;;3.17;2.20;;;2.40;99.90;;;;;;5120686;28;20047;-67
2022/12/08 04:47:31;;;;;;;2.92;2.15;;;2.40;99.90;;;;;;5092913;28;20050;-68
2022/12/08 04:49:57;;;;;;;3.17;2.20;;;2.50;99.90;;;;;;5015567;28;20042;-68
2022/12/08 04:52:23;;;;;;;2.78;2.00;;;2.40;99.90;;;;;;5028843;28;20046;-68
2022/12/08 04:54:48;;;;;;;3.95;2.00;;;2.40;99.90;;;;;;5034814;28;20070;-69
2022/12/08 04:57:14;;;;;;;3.00;2.10;;;2.40;99.90;;;;;;5034420;28;20052;-68
2022/12/08 04:59:40;;;;;;;2.97;2.40;;;2.40;99.90;;;;;;5051035;28;20050;-68
2022/12/08 05:02:06;;;;;;;3.47;1.77;;;2.40;99.90;;;;;;5110282;28;20028;-68
2022/12/08 05:04:31;;;;;;;3.08;1.77;;;2.40;99.90;;;;;;5033889;28;20068;-68
2022/12/08 05:06:57;;;;;;;3.88;1.90;;;2.40;99.90;;;;;;5064376;28;20079;-68
2022/12/08 05:09:23;;;;;;;4.07;2.28;;;2.40;99.90;;;;;;5116654;28;20059;-68
2022/12/08 05:11:48;;;;;;;6.13;2.30;;;2.30;99.90;;;;;;5118734;28;20112;-69
2022/12/08 05:14:16;;;;;;;3.75;2.15;;;2.30;99.90;;;;;;5118579;28;20051;-68
2022/12/08 05:16:43;;;;;;;3.40;2.05;;;3.20;99.90;;;;;;5048858;28;20686;-69
2022/12/08 05:19:08;;;;;;;4.85;2.78;;;2.40;99.90;;;;;;5035958;28;20042;-69
2022/12/08 05:21:34;;;;;;;3.83;2.60;;;2.50;99.90;;;;;;5033824;28;20049;-69
2022/12/08 05:24:00;;;;;;;4.75;2.70;;;2.40;99.90;;;;;;5034260;28;20050;-69
2022/12/08 05:26:26;;;;;;;4.82;2.47;;;2.70;99.90;;;;;;5032679;28;20173;-69
2022/12/08 05:28:51;;;;;;;5.45;2.90;;;3.30;99.90;;;;;;5032552;28;20066;-68
2022/12/08 05:31:17;;;;;;;5.03;2.80;;;2.50;99.90;;;;;;5040301;28;20054;-68
2022/12/08 05:33:44;;;;;;;4.00;2.60;;;2.50;99.90;;;;;;5043056;28;20050;-68
2022/12/08 05:36:14;;;;;;;4.30;2.90;;;2.60;99.90;;;;;;5118884;28;20055;-68
2022/12/08 05:38:41;;;;;;;4.60;2.72;;;2.50;99.90;;;;;;5045782;28;20079;-68
2022/12/08 05:41:07;;;;;;;4.25;2.70;;;2.50;99.90;;;;;;5014696;28;20061;-68
2022/12/08 05:43:33;;;;;;;5.45;3.15;;;2.60;99.90;;;;;;5014012;28;20064;-68
2022/12/08 05:45:59;;;;;;;4.05;3.00;;;2.70;99.90;;;;;;5019465;28;20125;-68
2022/12/08 05:48:24;;;;;;;3.83;2.67;;;2.70;99.90;;;;;;5034275;28;20504;-67
2022/12/08 05:50:51;;;;;;;6.45;2.40;;;2.60;99.90;;;;;;5034960;28;20046;-68
2022/12/08 05:53:18;;;;;;;5.60;2.78;;;2.60;99.90;;;;;;5033854;28;20045;-67
2022/12/08 05:55:45;;;;;;;3.85;2.95;;;2.60;99.90;;;;;;5030399;28;20065;-68
2022/12/08 05:58:15;;;;;;;3.97;2.60;;;2.60;99.90;;;;;;5075012;28;20095;-67
2022/12/08 06:00:42;;;;;;;3.45;2.45;;;2.80;99.90;;;;;;5053878;28;20383;-67
2022/12/08 06:03:09;;;;;;;3.45;2.35;;;2.70;99.90;;;;;;4996173;28;20107;-68
2022/12/08 06:05:35;;;;;;;5.00;2.83;;;2.60;99.90;;;;;;5075962;28;20122;-68
2022/12/08 06:08:01;;;;;;;4.90;3.25;;;2.60;99.90;;;;;;5118257;28;20055;-68
2022/12/08 06:10:27;;;;;;;5.20;2.58;;;2.60;99.90;;;;;;5118753;28;20490;-67
2022/12/08 06:12:53;;;;;;;4.55;2.72;;;2.70;99.90;;;;;;5102079;28;20050;-67
2022/12/08 06:15:18;;;;;;;3.90;2.05;;;2.60;99.90;;;;;;5087060;28;20045;-67
2022/12/08 06:17:44;;;;;;;3.53;2.30;;;2.60;99.90;;;;;;5065516;28;20051;-67
2022/12/08 06:20:10;;;;;;;3.40;2.40;;;2.60;99.90;;;;;;5120542;28;20055;-67
2022/12/08 06:22:36;;;;;;;3.13;2.00;;;2.60;99.90;;;;;;5052504;28;20034;-67
2022/12/08 06:25:03;;;;;;;3.45;1.95;;;2.60;99.90;;;;;;5015492;28;20057;-68
2022/12/08 06:27:29;;;;;;;4.18;2.35;;;2.60;99.90;;;;;;5014791;28;20121;-67
2022/12/08 06:29:54;;;;;;;3.85;1.67;;;2.60;99.90;;;;;;5016220;28;20054;-68
2022/12/08 06:32:20;;;;;;;3.53;1.77;;;2.60;99.90;;;;;;5035197;28;20123;-67
2022/12/08 06:34:46;;;;;;;2.53;1.70;;;2.60;99.90;;;;;;5032824;28;20092;-67
2022/12/08 06:37:12;;;;;;;3.95;1.80;;;2.60;99.90;;;;;;5035146;28;20045;-67
2022/12/08 06:39:37;;;;;;;5.95;2.42;;;2.60;99.90;;;;;;5033350;28;20090;-67
2022/12/08 06:44:47;;;;;;;3.13;2.10;;;2.60;99.90;;;;;;5024872;28;20045;-67
2022/12/08 06:47:13;;;;;;;3.95;1.80;;;2.60;99.90;;;;;;5069089;28;20133;-68
2022/12/08 06:49:39;;;;;;;2.90;1.70;;;2.60;99.90;;;;;;5081166;28;20042;-68
2022/12/08 06:52:05;;;;;;;3.30;1.90;;;2.60;99.90;;;;;;5036057;28;20068;-68
2022/12/08 06:54:30;;;;;;;3.25;1.67;;;2.60;99.90;;;;;;5022582;28;20064;-68
2022/12/08 06:56:56;;;;;;;2.08;1.35;;;2.60;99.90;;;;;;5015978;28;20109;-68
2022/12/08 06:59:24;;;;;;;2.38;1.35;;;2.60;99.90;;;;;;5019396;28;20061;-68
2022/12/08 07:01:51;;;;;;;4.15;1.70;;;2.50;99.90;;;;;;5023320;28;20026;-68
2022/12/08 07:04:17;;;;;;;3.90;1.90;;;2.50;99.90;;;;;;5085888;28;20046;-68
2022/12/08 07:06:42;;;;;;;4.15;1.88;;;2.50;99.90;;;;;;5077109;28;20085;-68
2022/12/08 07:09:08;;;;;;;3.58;2.08;;;2.40;99.90;;;;;;5018548;28;20050;-68
2022/12/08 07:11:34;;;;;;;3.38;2.25;;;2.40;99.90;;;;;;5036021;28;20057;-69
2022/12/08 07:14:00;;;;;;;3.58;2.20;;;2.40;99.90;;;;;;5055314;28;20034;-68
2022/12/08 07:16:25;;;;;;;3.67;2.30;;;2.30;99.90;;;;;;5120560;28;20073;-70
2022/12/08 07:18:51;;;;;;;3.85;2.28;;;2.30;99.90;;;;;;5106213;28;20438;-69
2022/12/08 07:21:17;;;;;;;4.75;2.67;;;2.30;99.90;;;;;;5034130;28;20410;-70
2022/12/08 07:23:48;;;;;;;2.53;1.70;;;2.30;99.90;;;;;;5044569;28;20046;-69
2022/12/08 07:26:13;;;;;;;3.17;2.03;;;2.30;99.90;;;;;;5081803;28;20047;-69
2022/12/08 07:28:40;;;;;;;3.95;2.10;;;2.20;99.90;;;;;;5065078;28;20116;-70
2022/12/08 07:31:14;;;;;;;3.83;2.08;;;2.20;99.90;;;;;;5036295;28;20154;-69
2022/12/08 07:33:40;;;;;;;4.10;2.13;;;2.20;99.90;;;;;;5119518;28;20096;-69
2022/12/08 07:36:06;;;;;;;3.50;2.38;;;2.20;99.90;;;;;;5121428;28;20048;-69
2022/12/08 07:38:32;;;;;;;3.10;1.67;;;2.20;99.90;;;;;;5119605;28;20047;-69
2022/12/08 07:40:58;;;;;;;4.03;1.92;;;2.20;99.90;;;;;;5082326;28;20038;-69
2022/12/08 07:43:24;;;;;;;4.78;2.30;;;2.20;99.90;;;;;;5017068;28;20049;-69
2022/12/08 07:45:50;;;;;;;3.65;2.25;;;2.40;99.90;;;;;;5036879;28;20053;-69
2022/12/08 07:48:16;;;;;;;3.40;1.98;;;2.10;99.90;;;;;;5035361;28;20082;-69
2022/12/08 07:50:42;;;;;;;3.10;2.20;;;2.10;99.90;;;;;;5036304;28;20065;-69
2022/12/08 07:53:08;;;;;;;3.85;2.60;;;2.10;99.90;;;;;;5036308;28;20060;-69
2022/12/08 07:55:37;;;;;;;3.30;2.20;;;2.20;99.90;;;;;;5035791;28;20053;-69
2022/12/08 07:58:03;;;;;;;3.30;2.17;;;3.20;99.90;;;;;;5077824;28;20066;-69
2022/12/08 08:00:29;;;;;;;4.35;2.53;;;2.20;99.90;;;;;;5118801;28;20052;-69
2022/12/08 08:02:54;;;;;;;5.15;2.17;;;2.40;99.90;;;;;;5119914;28;20039;-69
2022/12/08 08:05:21;;;;;;;4.32;2.53;;;2.20;99.90;;;;;;5118020;28;20068;-69
2022/12/08 08:07:47;;;;;;;6.00;2.88;;;2.20;99.90;;;;;;5120460;28;20372;-69
2022/12/08 08:10:12;;;;;;;2.95;1.98;;;2.20;99.90;;;;;;5080335;28;20185;-69
2022/12/08 08:12:38;;;;;;;3.42;2.00;;;2.20;99.90;;;;;;5003531;28;20046;-69
2022/12/08 08:15:07;;;;;;;2.92;1.90;;;2.70;99.90;;;;;;5012088;28;20034;-69
2022/12/08 08:17:34;;;;;;;2.88;1.90;;;2.10;99.90;;;;;;5015144;28;20069;-69
2022/12/08 08:20:00;;;;;;;4.18;2.10;;;2.10;99.90;;;;;;5016642;28;20054;-69
2022/12/08 08:22:26;;;;;;;4.07;1.77;;;2.10;99.90;;;;;;5012434;28;20050;-69
2022/12/08 08:24:52;;;;;;;4.47;1.77;;;2.10;99.90;;;;;;5013795;28;20576;-69
2022/12/08 08:27:19;;;;;;;3.30;2.33;;;2.10;99.90;;;;;;5016241;28;20465;-68
2022/12/08 08:29:45;;;;;;;2.63;1.58;;;2.20;99.90;;;;;;5015230;28;20382;-69
2022/12/08 08:32:11;;;;;;;2.67;1.80;;;2.10;99.90;;;;;;5064263;28;20470;-69
2022/12/08 08:34:37;;;;;;;3.20;1.98;;;2.10;99.90;;;;;;5117817;28;20055;-68
2022/12/08 08:37:02;;;;;;;2.58;1.70;;;2.10;99.90;;;;;;5071364;28;20382;-69
2022/12/08 08:39:30;;;;;;;2.92;1.88;;;2.10;99.90;;;;;;5014523;28;20101;-68
2022/12/08 08:41:56;;;;;;;3.33;2.10;;;2.30;99.90;;;;;;5016173;28;20425;-69
2022/12/08 08:44:22;;;;;;;3.65;2.30;;;2.10;99.90;;;;;;5016034;28;20060;-68
2022/12/08 08:46:47;;;;;;;3.10;2.00;;;2.10;99.90;;;;;;5013573;28;20054;-69
2022/12/08 08:49:13;;;;;;;3.15;2.10;;;2.10;99.90;;;;;;5018935;28;20042;-68
2022/12/08 08:51:39;;;;;;;4.88;2.00;;;2.10;99.90;;;;;;5013436;28;20606;-68
2022/12/08 08:54:05;;;;;;;2.90;1.75;;;2.10;99.90;;;;;;4998332;28;20106;-68
2022/12/08 08:56:30;;;;;;;3.75;1.70;;;2.10;99.90;;;;;;4981000;28;20050;-68
2022/12/08 08:58:56;;;;;;;3.00;1.60;;;2.10;99.90;;;;;;4997856;28;20050;-67
2022/12/08 09:01:27;;;;;;;3.40;1.65;;;2.10;99.90;;;;;;5016614;28;20763;-68
2022/12/08 09:03:53;;;;;;;4.05;1.60;;;2.10;99.90;;;;;;5013679;28;20041;-68
2022/12/08 09:06:19;;;;;;;2.65;1.55;;;2.10;99.90;;;;;;5014951;28;20042;-68
2022/12/08 09:08:45;;;;;;;2.72;1.50;;;2.10;99.90;;;;;;5013997;28;20042;-69
2022/12/08 09:11:12;;;;;;;1.90;1.30;;;2.10;99.90;;;;;;5088010;28;20107;-70
2022/12/08 09:13:37;;;;;;;2.65;1.40;;;2.10;99.90;;;;;;5059822;28;20102;-70
2022/12/08 09:16:05;;;;;;;2.13;1.30;;;2.10;99.90;;;;;;5036019;28;20050;-70
2022/12/08 09:18:31;;;;;;;2.20;1.15;;;2.80;99.90;;;;;;5033611;28;20049;-70
2022/12/08 09:21:13;;;;;;;4.28;1.52;;;2.10;99.90;;;;;;5033304;28;20057;-70
2022/12/08 09:23:39;;;;;;;3.00;1.35;;;2.50;99.90;;;;;;5034100;28;20110;-69
2022/12/08 09:26:06;;;;;;;3.15;1.38;;;3.00;99.90;;;;;;5021899;28;20057;-70
2022/12/08 09:28:32;;;;;;;3.25;1.20;;;2.10;99.90;;;;;;5016372;28;20056;-70
2022/12/08 09:30:58;;;;;;;2.10;1.05;;;2.10;99.90;;;;;;5013081;28;20053;-70
2022/12/08 09:33:23;;;;;;;2.08;1.05;;;2.10;99.90;;;;;;5116262;28;20047;-70
2022/12/08 09:35:49;;;;;;;2.97;1.00;;;2.10;99.90;;;;;;5117302;28;20051;-69
2022/12/08 09:38:15;;;;;;;2.63;1.10;;;2.10;99.90;;;;;;5045061;28;20471;-70
2022/12/08 09:41:01;;;;;;;2.22;1.00;;;2.10;99.90;;;;;;5014583;28;20045;-69
2022/12/08 09:43:44;;;;;;;4.82;1.20;;;2.10;99.90;;;;;;5013971;28;20507;-69
2022/12/08 09:46:13;;;;;;;2.28;1.13;;;2.10;99.90;;;;;;5013849;28;20148;-70
2022/12/08 09:48:44;;;;;;;2.30;1.10;;;2.10;99.90;;;;;;5013705;28;20079;-69
2022/12/08 09:51:11;;;;;;;3.13;1.10;;;2.00;99.90;;;;;;5013819;28;20061;-70
2022/12/08 09:53:49;;;;;;;5.63;1.10;;;2.00;99.90;;;;;;5015655;28;20049;-69
2022/12/08 09:56:16;;;;;;;2.97;1.10;;;2.00;99.90;;;;;;5013553;28;20057;-69
2022/12/08 09:59:01;;;;;;;1.77;1.00;;;2.00;99.90;;;;;;5014576;28;20464;-69
2022/12/08 10:01:31;;;;;;;1.65;1.00;;;2.00;99.90;;;;;;5014442;28;20045;-69
2022/12/08 10:03:58;;;;;;;2.30;1.30;;;1.90;99.90;;;;;;5012647;28;20073;-70
2022/12/08 10:06:31;;;;;;;2.55;1.00;;;2.00;99.90;;;;;;5014486;28;20043;-69
2022/12/08 10:09:02;;;;;;;1.73;0.90;;;2.10;99.90;;;;;;5013105;28;20056;-70
2022/12/08 10:12:03;;;;;;;2.00;1.02;;;2.00;99.90;;;;;;5099958;28;20081;-70
2022/12/08 10:14:48;;;;;;;3.17;1.23;;;2.00;99.90;;;;;;5060468;28;20053;-70
2022/12/08 10:17:33;;;;;;;2.78;1.00;;;2.10;99.90;;;;;;5032768;28;20093;-70
2022/12/08 10:20:09;;;;;;;1.77;1.00;;;2.20;99.90;;;;;;5011708;28;20089;-69
2022/12/08 10:22:34;;;;;;;2.05;0.85;;;2.10;99.90;;;;;;4977426;28;20057;-70
2022/12/08 10:25:09;;;;;;;2.60;1.02;;;2.10;99.90;;;;;;4993540;28;20062;-70
2022/12/08 10:27:36;;;;;;;1.90;0.85;;;2.10;99.90;;;;;;5015137;28;20050;-69
2022/12/08 10:30:09;;;;;;;2.08;0.88;;;2.00;99.90;;;;;;5013217;28;20048;-69
2022/12/08 10:32:35;;;;;;;2.95;0.82;;;2.00;99.90;;;;;;5081753;28;20470;-69
2022/12/08 10:35:10;;;;;;;3.63;0.95;;;1.90;99.90;;;;;;5120461;28;20035;-69
2022/12/08 10:37:37;;;;;;;2.28;1.10;;;1.90;99.90;;;;;;5106990;28;20057;-69
2022/12/08 10:40:18;;;;;;;1.50;0.90;;;2.20;99.90;;;;;;5014998;28;20057;-69
2022/12/08 10:42:50;;;;;;;2.25;1.15;;;2.50;99.90;;;;;;5013329;28;20073;-69
2022/12/08 10:45:18;;;;;;;2.58;1.00;;;2.70;99.90;;;;;;5013983;28;20046;-69
2022/12/08 10:47:55;;;;;;;2.40;1.00;;;2.40;99.90;;;;;;5013327;28;20100;-69
2022/12/08 10:50:31;;;;;;;2.25;0.85;;;2.30;99.90;;;;;;5013541;28;20093;-70
2022/12/08 10:53:06;;;;;;;2.58;1.00;;;2.20;99.90;;;;;;5013019;28;20113;-69
2022/12/08 10:56:05;;;;;;;1.83;1.08;;;2.20;99.90;;;;;;5012074;28;20058;-70
2022/12/08 10:58:41;;;;;;;4.60;1.00;;;2.10;99.90;;;;;;5015025;28;20088;-70
2022/12/08 11:01:26;;;;;;;1.42;0.90;;;2.10;99.90;;;;;;5013782;28;20053;-70
2022/12/08 11:04:01;;;;;;;1.75;1.00;;;2.00;99.90;;;;;;5013480;28;20049;-70
2022/12/08 11:06:38;;;;;;;1.77;0.80;;;2.00;99.90;;;;;;5015428;28;20057;-69
2022/12/08 11:09:33;;;;;;;1.88;1.00;;;1.90;99.90;;;;;;5012918;28;20050;-69
2022/12/08 11:12:20;;;;;;;1.77;1.17;;;1.90;99.90;;;;;;4994907;28;20074;-69
2022/12/08 11:14:56;;;;;;;1.95;0.98;;;1.90;99.90;;;;;;5062662;28;20075;-69
2022/12/08 11:17:21;;;;;;;2.80;1.40;;;1.90;99.90;;;;;;5119902;28;20053;-69
2022/12/08 11:20:08;;;;;;;1.60;0.90;;;1.80;99.90;;;;;;5122257;28;20096;-69
2022/12/08 11:22:38;;;;;;;3.10;1.17;;;1.80;99.90;;;;;;5120309;28;20050;-69
2022/12/08 11:25:09;;;;;;;3.45;1.20;;;2.30;99.90;;;;;;5121217;28;20088;-69
2022/12/08 11:27:40;;;;;;;1.65;0.88;;;1.70;99.90;;;;;;5122150;28;20108;-69
2022/12/08 11:30:16;;;;;;;2.45;1.25;;;1.80;99.90;;;;;;5114874;28;20051;-69
2022/12/08 11:32:46;;;;;;;4.03;1.08;;;1.70;99.90;;;;;;5060273;28;20045;-69
2022/12/08 11:35:22;;;;;;;2.25;1.25;;;1.80;99.90;;;;;;5032706;28;20539;-70
2022/12/08 11:37:48;;;;;;;2.05;1.33;;;1.80;99.90;;;;;;5037131;28;20053;-70
2022/12/08 11:40:23;;;;;;;2.42;1.45;;;1.90;99.90;;;;;;5035693;28;20428;-69
2022/12/08 11:42:59;;;;;;;2.55;1.60;;;1.90;99.90;;;;;;5035952;28;20053;-69
2022/12/08 11:45:29;;;;;;;3.90;1.88;;;2.50;99.90;;;;;;5036679;28;20045;-70
2022/12/08 11:48:15;;;;;;;3.28;1.50;;;2.00;99.90;;;;;;5035756;28;20041;-70
2022/12/08 11:50:46;;;;;;;5.40;1.80;;;2.10;99.90;;;;;;5035580;28;20193;-70
2022/12/08 11:53:18;;;;;;;6.15;2.08;;;2.20;99.90;;;;;;5036978;28;20544;-69
2022/12/08 11:55:51;;;;;;;2.58;1.60;;;2.30;99.90;;;;;;5035598;28;20392;-70
2022/12/08 11:58:33;;;;;;;3.13;1.67;;;2.40;99.90;;;;;;5036546;28;20094;-70
2022/12/08 12:01:00;;;;;;;3.30;1.75;;;2.40;99.90;;;;;;5035780;28;20098;-70
2022/12/08 12:03:48;;;;;;;11.88;2.10;;;2.40;99.90;;;;;;5036914;28;20064;-70
2022/12/08 12:06:54;;;;;;;2.55;1.60;;;2.40;99.90;;;;;;5035921;28;20056;-70
2022/12/08 12:10:10;;;;;;;2.75;1.50;;;2.40;99.90;;;;;;5020956;28;20057;-69
2022/12/08 12:13:06;;;;;;;4.28;2.15;;;2.40;99.90;;;;;;4992531;28;20062;-70
2022/12/08 12:15:59;;;;;;;3.40;2.03;;;2.50;99.90;;;;;;5013311;28;20113;-70
2022/12/08 12:18:28;;;;;;;3.53;2.00;;;2.80;99.90;;;;;;5017360;28;20060;-70
2022/12/08 12:21:18;;;;;;;3.83;1.70;;;2.90;99.90;;;;;;5014581;28;20099;-70
2022/12/08 12:24:17;;;;;;;3.22;1.55;;;3.00;99.90;;;;;;5015991;28;20098;-69
2022/12/08 12:27:20;;;;;;;3.42;1.70;;;3.10;99.90;;;;;;5015211;28;20073;-67
2022/12/08 12:29:59;;;;;;;5.78;1.80;;;3.10;99.90;;;;;;5017155;28;20149;-67
2022/12/08 12:32:38;;;;;;;2.97;1.90;;;3.30;99.90;;;;;;5028560;28;20412;-66
2022/12/08 12:35:18;;;;;;;2.50;1.50;;;3.40;99.90;;;;;;5033369;28;20037;-67
2022/12/08 12:37:44;;;;;;;6.15;1.90;;;3.60;99.90;;;;;;5036211;28;20046;-67
2022/12/08 12:40:22;;;;;;;4.80;2.00;;;3.80;99.90;;;;;;5051983;28;20056;-67
2022/12/08 12:43:11;;;;;;;3.00;1.67;;;3.80;99.90;;;;;;5068677;28;20050;-67
2022/12/08 12:45:42;;;;;;;3.85;2.33;;;3.90;99.90;;;;;;5120019;28;20095;-67
2022/12/08 12:48:08;;;;;;;3.10;1.77;;;3.90;99.90;;;;;;5063142;28;20049;-67
2022/12/08 12:50:33;;;;;;;2.88;1.73;;;3.80;99.90;;;;;;5015966;28;20155;-69
2022/12/08 12:53:24;;;;;;;3.72;1.70;;;3.70;99.90;;;;;;5014512;28;20132;-70
2022/12/08 12:56:02;;;;;;;3.53;1.63;;;3.70;99.90;;;;;;5072473;28;20065;-69
2022/12/08 12:58:30;;;;;;;3.47;1.55;;;3.60;99.90;;;;;;5015315;28;20056;-70
2022/12/08 13:01:11;;;;;;;4.03;1.67;;;3.70;99.90;;;;;;5013413;28;20061;-70
2022/12/08 13:03:46;;;;;;;3.00;1.80;;;3.50;99.90;;;;;;5014018;28;20077;-70
2022/12/08 13:06:14;;;;;;;2.90;1.80;;;3.60;99.90;;;;;;5014486;28;20053;-70
2022/12/08 13:08:54;;;;;;;3.53;2.20;;;3.50;99.90;;;;;;4995266;28;20062;-70
2022/12/08 13:11:22;;;;;;;2.95;1.73;;;3.50;99.90;;;;;;5093639;28;20104;-70
2022/12/08 13:14:02;;;;;;;3.47;2.08;;;3.50;99.90;;;;;;5063496;28;20053;-70
2022/12/08 13:16:35;;;;;;;4.10;2.50;;;3.50;99.90;;;;;;5034106;28;20076;-70
2022/12/08 13:19:04;;;;;;;4.80;2.20;;;3.50;99.90;;;;;;5028684;28;20057;-69
2022/12/08 13:21:38;;;;;;;4.40;2.38;;;3.50;99.90;;;;;;5012512;28;20494;-70
2022/12/08 13:24:12;;;;;;;4.22;2.15;;;3.50;99.90;;;;;;5068996;28;20060;-70